Time;durP1;ratioP1;P1;durP2;ratioP2;P2;SDS_P1;SDS_P2;PMS_P1;PMS_P2;Temp;Humidity;BMP_temperature;BMP_pressure;BME280_temperature;BME280_humidity;BME280_pressure;Samples;Min_cycle;Max_cycle;Signal;HPM_P1;HPM_P2
2022/03/02 00:00:34;;;;;;;34.38;18.90;;;;;;;2.49;52.04;95439.91;4912237;29;20032;-76
2022/03/02 00:02:59;;;;;;;48.42;23.88;;;;;;;2.51;51.87;95437.19;4912148;29;20039;-75
2022/03/02 00:05:24;;;;;;;62.03;29.48;;;;;;;2.50;52.22;95433.03;4912042;29;20401;-76
2022/03/02 00:07:51;;;;;;;56.85;31.02;;;;;;;2.45;53.09;95432.72;4913248;29;20091;-75
2022/03/02 00:10:16;;;;;;;57.10;30.55;;;;;;;2.40;53.10;95434.00;4896503;29;20042;-76
2022/03/02 00:12:42;;;;;;;46.22;26.25;;;;;;;2.35;53.91;95431.13;4896427;29;20040;-76
2022/03/02 00:15:07;;;;;;;42.25;23.40;;;;;;;2.35;54.04;95422.63;4913252;29;20039;-76
2022/03/02 00:17:33;;;;;;;34.53;20.27;;;;;;;2.41;53.38;95415.06;4896218;29;20071;-76
2022/03/02 00:19:58;;;;;;;41.72;23.85;;;;;;;2.41;53.62;95417.63;4896094;29;20032;-76
2022/03/02 00:22:23;;;;;;;45.80;25.55;;;;;;;2.41;53.66;95412.50;4896085;29;20032;-76
2022/03/02 00:24:51;;;;;;;62.15;29.70;;;;;;;2.34;54.47;95411.56;4913437;29;20476;-76
2022/03/02 00:27:24;;;;;;;44.88;24.45;;;;;;;2.26;53.16;95414.16;4911709;29;20074;-76
2022/03/02 00:29:50;;;;;;;48.67;21.92;;;;;;;2.27;53.14;95409.81;4871956;29;20526;-76
2022/03/02 00:32:16;;;;;;;36.83;18.50;;;;;;;2.24;52.54;95400.69;4913256;29;20067;-76
2022/03/02 00:34:41;;;;;;;30.33;17.73;;;;;;;2.21;52.86;95406.16;4912926;29;20104;-76
2022/03/02 00:37:07;;;;;;;34.83;18.35;;;;;;;2.21;52.30;95395.09;4912980;29;20034;-75
2022/03/02 00:39:33;;;;;;;35.13;18.80;;;;;;;2.14;52.61;95394.97;4896062;29;20028;-76
2022/03/02 00:41:58;;;;;;;34.47;19.70;;;;;;;2.06;52.87;95397.53;4880521;29;20029;-76
2022/03/02 00:44:24;;;;;;;39.65;17.63;;;;;;;1.98;52.75;95385.56;4911750;29;20114;-76
2022/03/02 00:46:49;;;;;;;37.58;18.88;;;;;;;1.96;53.05;95381.56;4895996;29;20032;-76
2022/03/02 00:49:15;;;;;;;34.35;18.00;;;;;;;1.85;53.62;95382.69;4895354;29;20040;-76
2022/03/02 00:51:41;;;;;;;39.72;20.55;;;;;;;1.80;53.75;95377.28;4913146;29;20044;-76
2022/03/02 00:54:07;;;;;;;42.30;19.27;;;;;;;1.74;53.91;95378.72;4911977;29;20024;-76
2022/03/02 00:56:32;;;;;;;32.08;18.20;;;;;;;1.68;54.16;95374.25;4911794;29;20123;-76
2022/03/02 00:58:58;;;;;;;29.30;17.88;;;;;;;1.64;53.76;95365.28;4912966;29;20103;-76
2022/03/02 01:01:23;;;;;;;34.75;16.85;;;;;;;1.66;53.89;95363.34;4898591;29;20032;-76
2022/03/02 01:03:49;;;;;;;38.75;17.35;;;;;;;1.62;53.30;95363.81;4916127;29;20044;-76
2022/03/02 01:06:15;;;;;;;35.75;19.30;;;;;;;1.64;53.08;95362.72;4916228;29;20039;-76
2022/03/02 01:08:40;;;;;;;38.22;18.70;;;;;;;1.64;53.09;95361.91;4916240;29;20036;-76
2022/03/02 01:11:13;;;;;;;35.33;18.00;;;;;;;1.61;52.65;95355.34;4915088;29;20039;-75
2022/03/02 01:13:39;;;;;;;47.05;21.45;;;;;;;1.57;52.98;95351.50;4900490;29;20119;-77
2022/03/02 01:16:04;;;;;;;40.58;18.38;;;;;;;1.57;52.71;95356.63;4915332;29;20477;-76
2022/03/02 01:18:29;;;;;;;34.05;16.85;;;;;;;1.52;52.60;95352.97;4914148;29;20043;-77
2022/03/02 01:20:55;;;;;;;38.83;19.08;;;;;;;1.54;52.60;95345.91;4916646;29;20071;-77
2022/03/02 01:23:20;;;;;;;31.58;16.92;;;;;;;1.48;52.84;95343.03;4916190;29;20020;-77
2022/03/02 01:25:46;;;;;;;39.20;20.48;;;;;;;1.49;53.06;95341.28;4914267;29;20032;-77
2022/03/02 01:28:11;;;;;;;37.10;18.80;;;;;;;1.39;53.52;95343.19;4914530;29;20032;-77
2022/03/02 01:30:37;;;;;;;44.45;21.67;;;;;;;1.35;53.70;95341.94;4914601;29;20086;-77
2022/03/02 01:33:02;;;;;;;43.92;22.45;;;;;;;1.28;54.92;95341.75;4914452;29;20032;-77
2022/03/02 01:35:28;;;;;;;45.85;21.65;;;;;;;1.28;54.73;95340.97;4914632;29;20032;-77
2022/03/02 01:37:53;;;;;;;39.05;20.50;;;;;;;1.32;54.16;95344.81;4899165;29;20036;-77
2022/03/02 01:40:18;;;;;;;37.33;19.95;;;;;;;1.28;54.21;95338.41;4898959;29;20040;-77
2022/03/02 01:42:44;;;;;;;33.50;19.30;;;;;;;1.27;53.81;95335.03;4914713;29;20523;-76
2022/03/02 01:45:11;;;;;;;34.08;17.58;;;;;;;1.25;54.39;95336.16;4914325;29;20403;-76
2022/03/02 01:47:36;;;;;;;28.35;15.90;;;;;;;1.25;53.16;95336.16;4898495;29;20047;-77
2022/03/02 01:50:03;;;;;;;23.90;14.82;;;;;;;1.20;53.47;95329.78;4915308;29;20028;-76
2022/03/02 01:52:30;;;;;;;22.13;13.35;;;;;;;1.15;53.27;95331.22;4914319;29;20036;-78
2022/03/02 01:54:55;;;;;;;20.42;12.35;;;;;;;1.01;52.80;95319.84;4914912;29;20115;-76
2022/03/02 01:57:21;;;;;;;19.27;12.70;;;;;;;1.12;52.82;95322.06;4898307;29;20123;-76
2022/03/02 01:59:47;;;;;;;20.42;11.55;;;;;;;1.10;52.67;95318.88;4914253;29;20035;-77
2022/03/02 02:02:12;;;;;;;17.70;11.65;;;;;;;1.10;52.31;95318.09;4898129;29;20036;-77
2022/03/02 02:04:38;;;;;;;25.65;14.25;;;;;;;1.09;53.28;95314.72;4914144;29;20508;-76
2022/03/02 02:07:03;;;;;;;25.73;14.32;;;;;;;1.08;52.76;95305.44;4915352;29;20433;-76
2022/03/02 02:09:29;;;;;;;23.73;14.27;;;;;;;1.10;52.16;95307.84;4913624;29;20047;-76
2022/03/02 02:11:54;;;;;;;29.17;16.90;;;;;;;1.08;52.92;95305.44;4898164;29;20130;-76
2022/03/02 02:14:19;;;;;;;26.83;18.27;;;;;;;1.01;52.91;95309.63;4897959;29;20040;-76
2022/03/02 02:16:45;;;;;;;34.88;21.95;;;;;;;0.94;53.22;95307.84;4914922;29;20047;-76
2022/03/02 02:19:10;;;;;;;35.75;20.90;;;;;;;0.90;53.37;95297.13;4915087;29;20052;-76
2022/03/02 02:21:36;;;;;;;32.08;17.48;;;;;;;0.86;53.20;95301.78;4914125;29;20039;-76
2022/03/02 02:24:01;;;;;;;35.65;19.00;;;;;;;0.88;53.62;95297.28;4913005;29;20039;-76
2022/03/02 02:26:27;;;;;;;37.05;19.70;;;;;;;0.84;53.76;95301.13;4914443;29;20032;-77
2022/03/02 02:28:52;;;;;;;33.15;18.42;;;;;;;0.82;54.09;95304.81;4915719;29;20028;-76
2022/03/02 02:31:18;;;;;;;35.30;18.17;;;;;;;0.75;54.54;95302.06;4914252;29;20058;-77
2022/03/02 02:33:43;;;;;;;28.65;16.08;;;;;;;0.71;54.70;95302.56;4913695;29;20385;-77
2022/03/02 02:36:09;;;;;;;29.58;16.58;;;;;;;0.72;54.62;95299.84;4898085;29;20039;-76
2022/03/02 02:38:34;;;;;;;36.35;18.00;;;;;;;0.67;54.31;95296.16;4913265;29;21274;-76
2022/03/02 02:40:59;;;;;;;25.05;13.45;;;;;;;0.72;53.42;95299.03;4914311;29;20036;-77
2022/03/02 02:43:25;;;;;;;20.70;12.07;;;;;;;0.75;53.41;95303.84;4915054;29;20036;-76
2022/03/02 02:45:51;;;;;;;15.27;10.30;;;;;;;0.75;53.74;95298.72;4898602;29;20032;-76
2022/03/02 02:48:16;;;;;;;11.50;7.95;;;;;;;0.76;51.79;95301.13;4896892;29;20063;-76
2022/03/02 02:50:42;;;;;;;13.80;8.50;;;;;;;0.77;52.30;95301.91;4914714;29;20040;-76
2022/03/02 02:53:09;;;;;;;22.05;12.13;;;;;;;0.76;52.91;95295.19;4913523;29;20671;-76
2022/03/02 02:55:35;;;;;;;20.45;11.00;;;;;;;0.81;51.75;95303.19;4897843;29;20479;-76
2022/03/02 02:58:01;;;;;;;13.40;9.43;;;;;;;0.76;51.37;95303.69;4914899;29;20123;-76
2022/03/02 03:00:28;;;;;;;17.67;9.80;;;;;;;0.80;51.33;95304.16;4914597;29;20485;-76
2022/03/02 03:02:53;;;;;;;14.23;10.02;;;;;;;0.74;51.42;95297.13;4897617;29;20036;-76
2022/03/02 03:05:20;;;;;;;10.73;8.88;;;;;;;0.70;51.81;95298.41;4913229;29;20031;-76
2022/03/02 03:07:46;;;;;;;13.82;9.63;;;;;;;0.71;51.41;95300.00;4897412;29;20040;-77
2022/03/02 03:10:12;;;;;;;14.85;9.50;;;;;;;0.62;52.10;95293.25;4897406;29;20044;-74
2022/03/02 03:12:38;;;;;;;16.15;10.57;;;;;;;0.67;52.35;95291.06;4897373;29;20029;-77
2022/03/02 03:15:04;;;;;;;17.27;10.75;;;;;;;0.65;51.60;95290.38;4914485;29;20039;-77
2022/03/02 03:17:29;;;;;;;12.68;10.27;;;;;;;0.58;52.70;95297.91;4897225;29;20055;-77
2022/03/02 03:19:55;;;;;;;14.52;9.20;;;;;;;0.60;52.64;95290.88;4897415;29;20104;-76
2022/03/02 03:22:20;;;;;;;22.65;13.23;;;;;;;0.56;52.91;95299.81;4912172;29;20111;-77
2022/03/02 03:24:45;;;;;;;16.05;11.30;;;;;;;0.51;53.56;95294.38;4881647;29;20039;-76
2022/03/02 03:27:11;;;;;;;16.33;10.75;;;;;;;0.56;52.91;95295.50;4896473;29;20028;-77
2022/03/02 03:29:37;;;;;;;17.17;10.73;;;;;;;0.56;53.48;95300.63;4912804;29;20028;-76
2022/03/02 03:32:04;;;;;;;24.10;11.55;;;;;;;0.56;53.76;95300.63;4913996;29;20042;-76
2022/03/02 03:34:29;;;;;;;24.77;13.55;;;;;;;0.55;54.34;95299.03;4896750;29;20032;-76
2022/03/02 03:36:54;;;;;;;22.85;13.65;;;;;;;0.58;54.38;95298.72;4896383;29;20036;-76
2022/03/02 03:39:20;;;;;;;21.33;12.27;;;;;;;0.55;54.99;95283.69;4912124;29;20032;-77
2022/03/02 03:41:45;;;;;;;24.42;12.25;;;;;;;0.59;54.61;95295.19;4914012;29;20063;-76
2022/03/02 03:44:11;;;;;;;34.17;12.80;;;;;;;0.53;54.89;95290.72;4913501;29;20529;-74
2022/03/02 03:46:36;;;;;;;28.80;14.05;;;;;;;0.59;54.79;95295.19;4913536;29;20110;-75
2022/03/02 03:49:02;;;;;;;21.70;12.23;;;;;;;0.62;55.06;95290.72;4913652;29;20055;-76
2022/03/02 03:51:27;;;;;;;20.50;13.35;;;;;;;0.64;55.62;95296.47;4912546;29;20032;-76
2022/03/02 03:53:53;;;;;;;24.13;13.43;;;;;;;0.65;55.32;95292.94;4912775;29;20032;-76
2022/03/02 03:56:18;;;;;;;20.60;12.10;;;;;;;0.69;55.42;95289.13;4914463;29;20039;-76
2022/03/02 03:58:44;;;;;;;16.05;11.85;;;;;;;0.69;55.90;95291.69;4913278;29;20032;-76
2022/03/02 04:01:09;;;;;;;17.77;10.45;;;;;;;0.77;55.61;95291.69;4896896;29;20032;-75
2022/03/02 04:03:35;;;;;;;20.73;10.27;;;;;;;0.80;55.44;95286.22;4913593;29;20617;-76
2022/03/02 04:06:00;;;;;;;14.88;10.60;;;;;;;0.83;55.04;95285.94;4896564;29;20543;-76
2022/03/02 04:08:26;;;;;;;15.05;10.60;;;;;;;0.85;55.55;95284.00;4912394;29;20162;-76
2022/03/02 04:10:51;;;;;;;13.30;9.88;;;;;;;0.94;55.38;95288.16;4913609;29;20044;-76
2022/03/02 04:13:17;;;;;;;15.13;9.57;;;;;;;0.96;54.98;95288.78;4912573;29;20087;-77
2022/03/02 04:15:42;;;;;;;15.25;9.85;;;;;;;1.03;55.07;95283.84;4912118;29;20036;-76
2022/03/02 04:18:08;;;;;;;14.75;10.00;;;;;;;1.04;54.72;95282.88;4913508;29;20040;-76
2022/03/02 04:20:34;;;;;;;13.57;9.95;;;;;;;1.08;55.01;95279.03;4880927;29;20032;-77
2022/03/02 04:22:59;;;;;;;12.32;9.57;;;;;;;1.10;54.93;95277.91;4912237;29;20044;-76
2022/03/02 04:25:25;;;;;;;11.27;9.02;;;;;;;1.15;54.72;95274.88;4888063;29;20489;-76
2022/03/02 04:27:50;;;;;;;18.40;10.48;;;;;;;1.17;55.56;95278.06;4911743;29;20032;-76
2022/03/02 04:30:16;;;;;;;16.27;11.45;;;;;;;1.22;55.39;95272.47;4913304;29;20024;-76
2022/03/02 04:32:41;;;;;;;24.08;15.02;;;;;;;1.25;55.61;95270.38;4912076;29;20051;-76
2022/03/02 04:35:08;;;;;;;32.17;15.98;;;;;;;1.33;55.48;95285.72;4896170;29;20075;-76
2022/03/02 04:37:33;;;;;;;22.83;14.30;;;;;;;1.36;54.91;95276.91;4896256;29;20505;-76
2022/03/02 04:39:58;;;;;;;22.25;12.88;;;;;;;1.41;55.45;95284.91;4909567;29;20040;-76
2022/03/02 04:42:24;;;;;;;34.15;17.17;;;;;;;1.52;55.39;95281.19;4913301;29;20032;-76
2022/03/02 04:44:49;;;;;;;35.50;20.00;;;;;;;1.61;55.24;95283.56;4911905;29;20477;-77
2022/03/02 04:47:15;;;;;;;36.65;21.58;;;;;;;1.70;55.15;95284.34;4910838;29;20039;-76
2022/03/02 04:49:40;;;;;;;50.78;27.27;;;;;;;1.76;54.58;95274.22;4913160;29;20088;-76
2022/03/02 04:52:08;;;;;;;34.80;20.17;;;;;;;1.79;54.88;95271.34;4911781;29;20036;-76
2022/03/02 04:57:17;;;;;;;24.63;15.82;;;;;;;1.85;54.51;95271.66;4911948;29;20043;-76
2022/03/02 04:59:43;;;;;;;21.95;16.50;;;;;;;1.90;54.66;95272.72;4913031;29;20040;-76
2022/03/02 05:02:08;;;;;;;24.50;13.15;;;;;;;1.89;54.40;95265.22;4895464;29;20063;-76
2022/03/02 05:04:33;;;;;;;33.58;22.30;;;;;;;1.86;54.69;95262.97;4911639;29;20035;-76
2022/03/02 05:06:59;;;;;;;50.28;26.98;;;;;;;1.82;55.18;95259.97;4911877;29;20039;-76
2022/03/02 05:09:24;;;;;;;22.60;15.73;;;;;;;1.88;54.88;95266.19;4911818;29;20064;-76
2022/03/02 05:11:50;;;;;;;18.30;12.27;;;;;;;1.92;54.58;95268.22;4895997;29;20036;-76
2022/03/02 05:14:15;;;;;;;16.42;11.18;;;;;;;1.85;54.83;95264.75;4880132;29;20036;-77
2022/03/02 05:16:41;;;;;;;17.50;11.75;;;;;;;1.89;54.97;95267.78;4895369;29;20044;-76
2022/03/02 05:19:06;;;;;;;24.83;12.98;;;;;;;1.91;55.41;95260.72;4912767;29;20036;-76
2022/03/02 05:21:31;;;;;;;33.53;17.23;;;;;;;1.91;55.68;95260.72;4911977;29;20048;-76
2022/03/02 05:23:57;;;;;;;31.63;17.75;;;;;;;1.89;55.64;95260.88;4912973;29;20099;-76
2022/03/02 05:26:23;;;;;;;28.45;18.23;;;;;;;1.98;55.88;95266.78;4913047;29;20040;-76
2022/03/02 05:28:48;;;;;;;24.85;16.77;;;;;;;1.98;55.44;95264.22;4895453;29;20055;-76
2022/03/02 05:31:13;;;;;;;38.00;20.17;;;;;;;1.94;56.37;95261.16;4895447;29;20032;-76
2022/03/02 05:33:39;;;;;;;32.95;18.42;;;;;;;1.94;56.79;95260.38;4911514;29;20031;-77
2022/03/02 05:36:05;;;;;;;43.97;21.42;;;;;;;1.98;56.92;95261.66;4911361;29;20043;-76
2022/03/02 05:38:30;;;;;;;52.05;24.27;;;;;;;1.93;56.83;95269.81;4910339;29;20463;-76
2022/03/02 05:40:55;;;;;;;47.92;22.48;;;;;;;1.93;56.49;95271.59;4896360;29;20028;-76
2022/03/02 05:43:21;;;;;;;60.22;28.95;;;;;;;1.94;57.29;95265.50;4910484;29;20449;-76
2022/03/02 05:45:46;;;;;;;56.72;25.85;;;;;;;2.00;57.27;95275.09;4912754;29;20496;-76
2022/03/02 05:48:12;;;;;;;59.80;27.35;;;;;;;2.08;56.69;95263.03;4915454;29;20072;-76
2022/03/02 05:50:37;;;;;;;63.28;30.10;;;;;;;2.19;56.58;95263.63;4915215;29;20536;-76
2022/03/02 05:53:03;;;;;;;48.60;24.00;;;;;;;2.29;56.08;95259.09;4898473;29;20036;-77
2022/03/02 05:55:28;;;;;;;47.97;25.50;;;;;;;2.31;56.70;95265.66;4914594;29;20043;-77
2022/03/02 05:57:54;;;;;;;41.88;24.73;;;;;;;2.33;56.18;95266.28;4898119;29;20067;-77
2022/03/02 06:00:19;;;;;;;49.95;28.50;;;;;;;2.39;56.32;95255.31;4882187;29;20036;-76
2022/03/02 06:02:45;;;;;;;43.78;24.23;;;;;;;2.34;56.25;95262.72;4914711;29;20519;-77
2022/03/02 06:05:10;;;;;;;40.28;24.85;;;;;;;2.40;56.37;95267.19;4914215;29;20420;-76
2022/03/02 06:07:37;;;;;;;38.20;19.42;;;;;;;2.47;56.24;95266.50;4898097;29;20043;-76
2022/03/02 06:10:03;;;;;;;40.80;21.67;;;;;;;2.57;55.94;95277.34;4914045;29;20670;-76
2022/03/02 06:12:28;;;;;;;38.95;23.05;;;;;;;2.64;56.24;95275.69;4898306;29;20042;-76
2022/03/02 06:14:54;;;;;;;34.42;18.25;;;;;;;2.63;56.06;95276.69;4898401;29;20500;-76
2022/03/02 06:17:20;;;;;;;38.20;21.60;;;;;;;2.60;55.88;95277.00;4913223;29;20028;-76
2022/03/02 06:19:46;;;;;;;34.55;22.83;;;;;;;2.67;55.83;95278.72;4914258;29;20060;-77
2022/03/02 06:22:11;;;;;;;40.38;22.27;;;;;;;2.74;55.56;95273.69;4913250;29;20123;-77
2022/03/02 06:24:37;;;;;;;35.72;21.30;;;;;;;2.76;55.25;95274.31;4897962;29;20515;-76
2022/03/02 06:27:02;;;;;;;42.55;25.10;;;;;;;2.79;55.42;95275.75;4913506;29;20040;-77
2022/03/02 06:29:28;;;;;;;43.38;24.25;;;;;;;2.85;55.06;95267.34;4914675;29;20655;-77
2022/03/02 06:31:54;;;;;;;51.47;28.70;;;;;;;2.78;54.87;95264.69;4913418;29;20107;-77
2022/03/02 06:34:19;;;;;;;39.83;22.52;;;;;;;2.82;55.68;95260.00;4912553;29;20034;-76
2022/03/02 06:36:49;;;;;;;26.17;16.85;;;;;;;2.92;55.32;95266.47;4897586;29;20043;-77
2022/03/02 06:39:16;;;;;;;26.98;17.15;;;;;;;2.98;54.51;95258.09;4883277;29;20768;-76
2022/03/02 06:42:04;;;;;;;27.25;18.58;;;;;;;3.06;54.55;95257.22;4899040;29;20039;-76
2022/03/02 06:44:54;;;;;;;26.05;15.43;;;;;;;3.08;54.59;95259.59;4913695;29;20463;-76
2022/03/02 06:47:25;;;;;;;19.58;14.13;;;;;;;3.04;54.50;95248.09;4898490;29;20124;-77
2022/03/02 06:50:04;;;;;;;20.90;15.25;;;;;;;3.14;54.26;95253.78;4891324;29;20040;-75
2022/03/02 06:52:33;;;;;;;27.90;18.33;;;;;;;3.19;54.13;95260.00;4915196;29;20039;-76
2022/03/02 06:55:00;;;;;;;24.75;17.45;;;;;;;3.23;53.96;95256.09;4913500;29;20040;-75
2022/03/02 06:57:27;;;;;;;28.33;18.08;;;;;;;3.26;53.81;95260.91;4912298;29;20082;-76
2022/03/02 06:59:53;;;;;;;34.15;19.50;;;;;;;3.28;54.33;95256.38;4897741;29;20119;-76
2022/03/02 07:02:34;;;;;;;27.75;16.45;;;;;;;3.26;54.31;95252.41;4912787;29;20032;-76
2022/03/02 07:05:00;;;;;;;32.28;20.90;;;;;;;3.34;53.80;95249.72;4912421;29;20555;-75
2022/03/02 07:07:25;;;;;;;38.08;20.67;;;;;;;3.43;53.76;95248.69;4897123;29;20032;-76
2022/03/02 07:09:51;;;;;;;28.35;17.17;;;;;;;3.45;53.46;95246.72;4912997;29;20028;-76
2022/03/02 07:12:16;;;;;;;25.92;16.90;;;;;;;3.44;53.81;95245.13;4913155;29;20028;-76
2022/03/02 07:14:41;;;;;;;27.55;17.70;;;;;;;3.45;53.50;95240.78;4912891;29;20021;-76
2022/03/02 07:17:07;;;;;;;27.65;17.17;;;;;;;3.50;53.52;95243.63;4914285;29;20590;-76
2022/03/02 07:19:32;;;;;;;26.52;18.70;;;;;;;3.56;53.43;95238.56;4914132;29;20107;-75
2022/03/02 07:22:04;;;;;;;33.70;20.08;;;;;;;3.57;52.96;95235.00;4896252;29;20041;-76
2022/03/02 07:24:36;;;;;;;29.45;18.38;;;;;;;3.63;52.82;95232.72;4890315;29;20035;-76
2022/03/02 07:27:01;;;;;;;25.70;16.92;;;;;;;3.76;52.34;95231.13;4897614;29;20143;-76
2022/03/02 07:29:28;;;;;;;31.73;20.55;;;;;;;3.80;52.30;95232.34;4880822;29;20036;-76
2022/03/02 07:31:55;;;;;;;49.20;28.33;;;;;;;3.86;52.25;95228.25;4912832;29;20028;-76
2022/03/02 07:34:21;;;;;;;36.35;21.15;;;;;;;3.88;52.62;95231.44;4911990;29;20485;-76
2022/03/02 07:36:46;;;;;;;30.17;19.67;;;;;;;3.96;52.41;95228.78;4913736;29;20028;-76
2022/03/02 07:39:12;;;;;;;33.25;21.50;;;;;;;4.01;52.49;95229.03;4896195;29;20071;-76
2022/03/02 07:41:37;;;;;;;27.98;17.67;;;;;;;3.98;52.33;95229.41;4913482;29;20111;-76
2022/03/02 07:44:03;;;;;;;32.80;19.05;;;;;;;4.04;52.02;95226.09;4913676;29;20671;-76
2022/03/02 07:46:29;;;;;;;31.73;18.58;;;;;;;4.18;51.41;95217.53;4913109;29;20032;-76
2022/03/02 07:48:55;;;;;;;40.75;21.88;;;;;;;4.24;52.13;95210.09;4913326;29;20103;-76
2022/03/02 07:51:21;;;;;;;31.40;20.98;;;;;;;4.32;51.68;95217.69;4913298;29;20580;-75
2022/03/02 07:53:48;;;;;;;26.83;17.30;;;;;;;4.39;51.71;95215.94;4912946;29;20028;-76
2022/03/02 07:56:14;;;;;;;24.17;17.42;;;;;;;4.42;51.57;95213.03;4896661;29;20040;-75
2022/03/02 07:58:39;;;;;;;29.00;19.25;;;;;;;4.39;51.89;95213.38;4888773;29;20043;-76
2022/03/02 08:01:06;;;;;;;21.80;16.52;;;;;;;4.39;51.39;95213.38;4911463;29;20032;-74
2022/03/02 08:03:38;;;;;;;28.40;18.67;;;;;;;4.55;51.08;95220.88;4910294;29;20400;-75
2022/03/02 08:06:04;;;;;;;30.08;19.83;;;;;;;4.61;51.25;95217.56;4892988;29;20043;-75
2022/03/02 08:08:29;;;;;;;32.88;20.65;;;;;;;4.65;50.67;95211.06;4888114;29;20036;-75
2022/03/02 08:10:55;;;;;;;26.42;17.45;;;;;;;4.69;50.76;95208.91;4915099;29;20067;-76
2022/03/02 08:13:22;;;;;;;34.53;21.95;;;;;;;4.61;51.70;95207.25;4911915;29;20024;-75
2022/03/02 08:15:47;;;;;;;25.63;16.67;;;;;;;4.71;50.49;95205.16;4913864;29;20032;-76
2022/03/02 08:18:13;;;;;;;35.35;20.55;;;;;;;4.83;50.39;95208.81;4916044;29;20084;-76
2022/03/02 08:20:43;;;;;;;34.88;19.73;;;;;;;4.83;51.05;95211.41;4915494;29;20036;-75
2022/03/02 08:23:09;;;;;;;38.78;22.85;;;;;;;4.94;50.04;95211.88;4898165;29;20043;-75
2022/03/02 08:25:34;;;;;;;29.77;18.63;;;;;;;4.97;50.00;95212.31;4915738;29;20076;-76
2022/03/02 08:28:02;;;;;;;25.88;18.63;;;;;;;4.94;49.22;95206.75;4910733;29;20074;-76
2022/03/02 08:30:33;;;;;;;26.95;16.80;;;;;;;4.88;49.41;95210.03;4911289;29;20063;-76
2022/03/02 08:32:58;;;;;;;36.72;22.40;;;;;;;4.93;49.78;95200.78;4911595;29;20039;-76
2022/03/02 08:35:24;;;;;;;29.92;19.20;;;;;;;4.99;50.23;95202.59;4912809;29;20521;-76
2022/03/02 08:37:49;;;;;;;22.63;17.23;;;;;;;4.97;49.08;95196.06;4912956;29;20107;-75
2022/03/02 08:40:15;;;;;;;28.38;17.08;;;;;;;5.01;49.88;95197.25;4913225;29;20036;-75
2022/03/02 08:42:40;;;;;;;37.53;21.13;;;;;;;5.10;49.36;95199.53;4911855;29;20044;-75
2022/03/02 08:45:06;;;;;;;30.38;18.02;;;;;;;5.29;49.53;95187.75;4895809;29;20046;-75
2022/03/02 08:47:32;;;;;;;34.38;20.77;;;;;;;5.41;48.65;95178.50;4873087;29;20036;-77
2022/03/02 08:49:57;;;;;;;40.38;23.85;;;;;;;5.62;48.54;95181.97;4912765;29;20476;-75
2022/03/02 08:52:27;;;;;;;36.33;22.65;;;;;;;5.80;48.33;95181.44;4895856;29;20403;-75
2022/03/02 08:54:53;;;;;;;29.23;18.17;;;;;;;6.03;47.30;95181.16;4896025;29;20134;-75
2022/03/02 08:57:18;;;;;;;32.45;16.73;;;;;;;6.18;47.32;95171.44;4894402;29;20031;-75
2022/03/02 08:59:44;;;;;;;24.85;14.80;;;;;;;6.37;46.11;95173.28;4895806;29;20044;-75
2022/03/02 09:02:09;;;;;;;22.90;15.52;;;;;;;6.44;46.53;95168.91;4911002;29;20047;-75
2022/03/02 09:04:35;;;;;;;26.02;16.05;;;;;;;6.56;45.80;95162.19;4911525;29;20036;-76
2022/03/02 09:07:03;;;;;;;41.08;22.60;;;;;;;6.76;45.72;95166.56;4879917;29;20043;-75
2022/03/02 09:09:29;;;;;;;59.03;29.70;;;;;;;6.99;44.82;95156.59;4911166;29;20099;-75
2022/03/02 09:11:55;;;;;;;31.60;18.15;;;;;;;7.20;44.42;95158.97;4911187;29;20119;-76
2022/03/02 09:14:21;;;;;;;27.92;19.50;;;;;;;7.18;44.51;95155.78;4911602;29;20039;-75
2022/03/02 09:16:46;;;;;;;31.60;21.25;;;;;;;7.37;44.64;95153.34;4911370;29;20036;-76
2022/03/02 09:19:12;;;;;;;28.63;20.83;;;;;;;7.36;43.94;95149.97;4910411;29;20428;-76
2022/03/02 09:21:37;;;;;;;29.17;21.42;;;;;;;7.45;44.46;95156.50;4914798;29;20036;-77
2022/03/02 09:24:04;;;;;;;30.15;19.10;;;;;;;7.25;44.09;95150.59;4914447;29;20036;-76
2022/03/02 09:26:30;;;;;;;24.15;17.02;;;;;;;7.06;43.61;95148.84;4914019;29;20504;-78
2022/03/02 09:28:56;;;;;;;28.35;17.35;;;;;;;6.81;44.44;95146.84;4897698;29;20028;-76
2022/03/02 09:31:22;;;;;;;24.77;17.55;;;;;;;6.84;43.05;95143.09;4915741;29;20028;-75
2022/03/02 09:33:49;;;;;;;35.10;23.45;;;;;;;7.00;43.64;95145.28;4915946;29;20039;-76
2022/03/02 09:36:15;;;;;;;33.00;20.30;;;;;;;7.12;43.55;95141.06;4892419;29;20126;-75
2022/03/02 09:38:40;;;;;;;42.60;22.55;;;;;;;7.18;43.30;95135.09;4880844;29;20046;-76
2022/03/02 09:41:06;;;;;;;30.67;19.15;;;;;;;7.05;43.12;95140.28;4914078;29;20028;-76
2022/03/02 09:43:33;;;;;;;27.55;18.77;;;;;;;6.82;43.50;95134.72;4917128;29;20043;-76
2022/03/02 09:46:02;;;;;;;28.83;18.90;;;;;;;6.79;43.30;95135.94;4903042;29;20032;-77
2022/03/02 09:48:30;;;;;;;29.95;18.55;;;;;;;6.68;43.85;95125.41;4899601;29;20070;-76
2022/03/02 09:51:21;;;;;;;30.90;19.90;;;;;;;6.65;44.54;95128.38;4898670;29;20044;-74
2022/03/02 09:53:48;;;;;;;42.75;21.73;;;;;;;6.70;44.70;95126.00;4915309;29;20040;-76
2022/03/02 09:56:13;;;;;;;37.10;18.90;;;;;;;6.65;43.59;95115.47;4898727;29;20032;-75
2022/03/02 09:58:39;;;;;;;26.20;16.60;;;;;;;6.69;43.10;95124.44;4898126;29;20051;-76
2022/03/02 10:01:08;;;;;;;27.23;17.17;;;;;;;6.55;43.43;95115.88;4898838;29;20453;-75
2022/03/02 10:03:37;;;;;;;32.75;19.77;;;;;;;6.55;44.10;95113.28;4914449;29;20452;-75
2022/03/02 10:06:05;;;;;;;52.13;26.30;;;;;;;6.55;43.46;95114.09;4913391;29;20036;-75
2022/03/02 10:08:35;;;;;;;39.50;23.10;;;;;;;6.62;43.32;95109.69;4898038;29;20123;-75
2022/03/02 10:11:05;;;;;;;33.78;20.55;;;;;;;6.56;43.16;95100.19;4889957;29;20033;-75
2022/03/02 10:13:31;;;;;;;32.67;19.25;;;;;;;6.47;43.23;95103.94;4913582;29;20512;-74
2022/03/02 10:15:57;;;;;;;23.00;15.98;;;;;;;6.42;43.07;95103.75;4897005;29;20063;-74
2022/03/02 10:18:22;;;;;;;22.92;15.13;;;;;;;6.37;42.78;95095.81;4896603;29;20067;-75
2022/03/02 10:20:49;;;;;;;24.27;16.23;;;;;;;6.24;43.74;95081.09;4896036;29;20480;-74
2022/03/02 10:23:22;;;;;;;30.25;20.10;;;;;;;6.37;43.61;95093.22;4911186;29;20064;-74
2022/03/02 10:26:15;;;;;;;31.23;20.60;;;;;;;6.51;43.38;95087.06;4910626;29;20028;-75
2022/03/02 10:28:53;;;;;;;25.95;16.45;;;;;;;6.67;42.38;95083.28;4911586;29;20055;-75
2022/03/02 10:31:37;;;;;;;23.10;12.77;;;;;;;6.69;41.30;95065.78;4914362;29;20098;-74
2022/03/02 10:34:16;;;;;;;24.02;13.75;;;;;;;6.62;41.78;95077.91;4913531;29;20040;-74
2022/03/02 10:36:42;;;;;;;39.35;21.65;;;;;;;6.77;42.10;95075.09;4893687;29;20115;-74
2022/03/02 10:39:08;;;;;;;31.00;19.15;;;;;;;6.93;42.15;95070.28;4895576;29;20034;-74
2022/03/02 10:41:37;;;;;;;31.55;19.67;;;;;;;6.90;41.72;95064.75;4913722;29;20040;-74
2022/03/02 10:44:05;;;;;;;25.40;18.30;;;;;;;7.06;42.76;95056.56;4911753;29;20024;-74
2022/03/02 10:46:31;;;;;;;28.98;20.60;;;;;;;7.23;42.24;95056.88;4911482;29;20024;-74
2022/03/02 10:49:34;;;;;;;31.55;20.13;;;;;;;7.14;41.59;95051.13;4912669;29;20039;-73
2022/03/02 10:52:00;;;;;;;33.83;21.13;;;;;;;7.01;40.80;95050.41;4901643;29;20127;-74
2022/03/02 10:54:25;;;;;;;46.33;28.10;;;;;;;7.07;40.85;95045.22;4897738;29;20068;-74
2022/03/02 10:56:55;;;;;;;29.90;18.33;;;;;;;7.20;41.54;95040.00;4897304;29;20032;-75
2022/03/02 10:59:21;;;;;;;33.10;18.80;;;;;;;7.20;41.17;95024.47;4897798;29;20036;-75
2022/03/02 11:01:48;;;;;;;22.33;16.63;;;;;;;7.23;40.63;95023.28;4913024;29;20044;-75
2022/03/02 11:04:14;;;;;;;24.90;15.93;;;;;;;7.03;41.24;95020.75;4896610;29;20096;-74
2022/03/02 11:06:40;;;;;;;18.70;14.60;;;;;;;6.78;41.29;95015.44;4896427;29;20032;-75
2022/03/02 11:09:05;;;;;;;29.02;15.15;;;;;;;6.72;41.30;95015.47;4895972;29;20060;-75
2022/03/02 11:11:32;;;;;;;22.33;14.63;;;;;;;6.67;41.51;95017.84;4918926;29;20060;-74
2022/03/02 11:13:58;;;;;;;21.65;14.40;;;;;;;6.71;41.20;95013.91;4915883;29;20456;-74
2022/03/02 11:16:24;;;;;;;22.00;15.73;;;;;;;6.61;41.36;95001.38;4912798;29;20031;-75
2022/03/02 11:18:52;;;;;;;22.92;14.98;;;;;;;6.62;40.32;94997.81;4910856;29;20054;-74
2022/03/02 11:21:27;;;;;;;24.50;17.35;;;;;;;6.70;40.32;94989.06;4911592;29;20100;-74
2022/03/02 11:23:54;;;;;;;35.47;21.75;;;;;;;6.79;40.17;94991.19;4911663;29;20047;-74
2022/03/02 11:26:24;;;;;;;30.90;19.27;;;;;;;6.79;39.97;94985.22;4896244;29;20044;-74